createdAt,value
2019-02-19T00:01:37.864Z,100730.70
2019-02-19T00:04:08.615Z,100732.04
2019-02-19T00:06:39.047Z,100725.11
2019-02-19T00:09:09.472Z,100714.06
2019-02-19T00:11:40.080Z,100717.78
2019-02-19T00:14:10.798Z,100710.76
2019-02-19T00:16:41.816Z,100722.86
2019-02-19T00:19:12.243Z,100713.17
2019-02-19T00:21:42.837Z,100717.24
2019-02-19T00:24:13.650Z,100712.96
2019-02-19T00:26:44.490Z,100711.06
2019-02-19T00:29:15.242Z,100703.84
2019-02-19T00:31:46.693Z,100709.91
2019-02-19T00:34:16.976Z,100718.84
2019-02-19T00:36:47.686Z,100712.96
2019-02-19T00:39:18.158Z,100716.58
2019-02-19T00:41:48.482Z,100715.78
2019-02-19T00:44:18.940Z,100708.76
2019-02-19T00:46:49.615Z,100704.77
2019-02-19T00:49:20.084Z,100702.20
2019-02-19T00:51:51.207Z,100698.03
2019-02-19T00:54:21.527Z,100695.95
2019-02-19T00:56:51.837Z,100696.89
2019-02-19T00:59:22.669Z,100691.64
2019-02-19T01:01:53.403Z,100691.27
2019-02-19T01:04:23.790Z,100696.27
2019-02-19T01:06:54.157Z,100690.50
2019-02-19T01:09:24.444Z,100688.61
2019-02-19T01:11:54.644Z,100680.25
2019-02-19T01:14:24.923Z,100680.16
2019-02-19T01:16:55.205Z,100674.94
2019-02-19T01:19:25.676Z,100668.45
2019-02-19T01:21:56.288Z,100662.79
2019-02-19T01:24:26.667Z,100666.80
2019-02-19T01:26:56.958Z,100667.34
2019-02-19T01:29:27.491Z,100662.66
2019-02-19T01:31:57.897Z,100655.45
2019-02-19T01:34:28.259Z,100646.79
2019-02-19T01:36:59.130Z,100644.83
2019-02-19T01:39:30.531Z,100648.72
2019-02-19T01:42:00.926Z,100646.44
2019-02-19T01:44:31.555Z,100644.81
2019-02-19T01:47:02.164Z,100638.86
2019-02-19T01:49:32.730Z,100627.47
2019-02-19T01:52:03.200Z,100625.30
2019-02-19T01:54:33.759Z,100623.09
2019-02-19T01:57:04.244Z,100619.02
2019-02-19T01:59:40.829Z,100611.73
2019-02-19T02:02:11.101Z,100610.39
2019-02-19T02:04:41.372Z,100611.15
2019-02-19T02:07:11.745Z,100604.88
2019-02-19T02:09:41.958Z,100601.86
2019-02-19T02:12:12.326Z,100602.03
2019-02-19T02:14:43.313Z,100604.89
2019-02-19T02:17:14.161Z,100609.42
2019-02-19T02:19:44.690Z,100614.74
2019-02-19T02:22:14.947Z,100615.98
2019-02-19T02:24:45.415Z,100611.62
2019-02-19T02:27:15.675Z,100613.63
2019-02-19T02:29:47.228Z,100618.66
2019-02-19T02:32:17.454Z,100614.94
2019-02-19T02:34:47.676Z,100609.82
2019-02-19T02:37:19.024Z,100611.33
2019-02-19T02:39:49.393Z,100599.76
2019-02-19T02:42:19.915Z,100604.11
2019-02-19T02:44:51.929Z,100596.53
2019-02-19T02:47:22.375Z,100592.72
2019-02-19T02:49:53.701Z,100587.77
2019-02-19T02:52:24.509Z,100583.78
2019-02-19T02:54:54.797Z,100586.75
2019-02-19T02:57:25.289Z,100591.02
2019-02-19T02:59:56.228Z,100577.99
2019-02-19T03:02:26.527Z,100582.84
2019-02-19T03:04:57.046Z,100581.98
2019-02-19T03:07:32.237Z,100582.08
2019-02-19T03:10:02.770Z,100582.94
2019-02-19T03:12:32.982Z,100586.92
2019-02-19T03:15:03.716Z,100577.72
2019-02-19T03:17:34.476Z,100585.70
2019-02-19T03:20:05.021Z,100595.38
2019-02-19T03:22:35.304Z,100584.58
2019-02-19T03:25:07.711Z,100591.02
2019-02-19T03:27:38.191Z,100592.35
2019-02-19T03:30:10.244Z,100592.92
2019-02-19T03:32:40.557Z,100598.42
2019-02-19T03:35:10.777Z,100607.73
2019-02-19T03:37:41.042Z,100614.75
2019-02-19T03:40:11.461Z,100611.34
2019-02-19T03:42:42.047Z,100603.16
2019-02-19T03:45:13.409Z,100595.77
2019-02-19T03:47:44.052Z,100596.72
2019-02-19T03:50:14.614Z,100601.08
2019-02-19T03:52:44.879Z,100603.06
2019-02-19T03:55:15.120Z,100602.21
2019-02-19T03:57:45.370Z,100604.12
2019-02-19T04:00:16.785Z,100604.97
2019-02-19T04:02:47.302Z,100610.39
2019-02-19T04:05:17.501Z,100606.59
2019-02-19T04:07:48.026Z,100607.92
2019-02-19T04:10:18.557Z,100605.84
2019-02-19T04:12:48.995Z,100607.55
2019-02-19T04:15:19.247Z,100621.70
2019-02-19T04:17:49.729Z,100614.36
2019-02-19T04:20:21.048Z,100609.54
2019-02-19T04:22:55.853Z,100613.80
2019-02-19T04:25:26.101Z,100612.64
2019-02-19T04:27:56.358Z,100612.24
2019-02-19T04:30:27.089Z,100616.23
2019-02-19T04:32:57.657Z,100614.78
2019-02-19T04:35:27.963Z,100613.37
2019-02-19T04:37:58.938Z,100616.02
2019-02-19T04:40:29.563Z,100616.02
2019-02-19T04:43:00.040Z,100608.81
2019-02-19T04:45:31.332Z,100614.22
2019-02-19T04:48:03.030Z,100605.08
2019-02-19T04:50:35.368Z,100611.81
2019-02-19T04:53:05.755Z,100608.78
2019-02-19T04:55:36.686Z,100612.77
2019-02-19T04:58:07.506Z,100606.50
2019-02-19T05:00:37.818Z,100610.33
2019-02-19T05:03:08.225Z,100608.05
2019-02-19T05:05:38.598Z,100604.61
2019-02-19T05:08:09.633Z,100608.59
2019-02-19T05:10:39.916Z,100603.75
2019-02-19T05:13:10.231Z,100610.68
2019-02-19T05:15:41.105Z,100608.02
2019-02-19T05:18:11.604Z,100609.36
2019-02-19T05:20:42.178Z,100605.94
2019-02-19T05:23:12.953Z,100599.48
2019-02-19T05:25:44.244Z,100601.92
2019-02-19T05:28:14.849Z,100604.48
2019-02-19T05:30:45.198Z,100603.83
2019-02-19T05:33:15.885Z,100602.02
2019-02-19T05:35:58.373Z,100598.03
2019-02-19T05:38:28.662Z,100587.13
2019-02-19T05:40:58.905Z,100589.22
2019-02-19T05:43:29.210Z,100596.05
2019-02-19T05:45:59.600Z,100597.97
2019-02-19T05:48:30.109Z,100597.97
2019-02-19T05:51:01.600Z,100591.23
2019-02-19T05:53:32.006Z,100597.20
2019-02-19T05:56:02.898Z,100603.37
2019-02-19T05:58:33.597Z,100601.38
2019-02-19T06:01:04.078Z,100595.22
2019-02-19T06:03:34.570Z,100600.44
2019-02-19T06:06:05.017Z,100598.83
2019-02-19T06:08:35.735Z,100592.19
2019-02-19T06:11:06.223Z,100599.86
2019-02-19T06:13:36.932Z,100596.83
2019-02-19T06:16:07.981Z,100605.37
2019-02-19T06:18:38.481Z,100603.28
2019-02-19T06:21:09.058Z,100604.61
2019-02-19T06:23:40.000Z,100601.36
2019-02-19T06:26:10.632Z,100607.90
2019-02-19T06:28:41.152Z,100609.70
2019-02-19T06:31:13.319Z,100616.56
2019-02-19T06:33:44.162Z,100608.59
2019-02-19T06:36:21.229Z,100618.66
2019-02-19T06:38:54.384Z,100619.22
2019-02-19T06:41:28.123Z,100622.92
2019-02-19T06:43:59.032Z,100615.96
2019-02-19T06:46:30.479Z,100617.01
2019-02-19T06:49:00.785Z,100627.73
2019-02-19T06:51:31.371Z,100628.11
2019-02-19T06:54:02.373Z,100628.11
2019-02-19T06:56:33.254Z,100627.91
2019-02-19T06:59:03.906Z,100629.24
2019-02-19T07:02:08.217Z,100626.40
2019-02-19T07:04:42.539Z,100634.66
2019-02-19T07:07:13.548Z,100634.55
2019-02-19T07:09:44.179Z,100630.80
2019-02-19T07:12:14.821Z,100641.23
2019-02-19T07:14:45.668Z,100644.84
2019-02-19T07:17:16.084Z,100639.14
2019-02-19T07:19:46.476Z,100643.03
2019-02-19T07:22:17.806Z,100647.40
2019-02-19T07:24:48.220Z,100658.88
2019-02-19T07:27:18.986Z,100652.80
2019-02-19T07:29:49.652Z,100664.38
2019-02-19T07:32:20.049Z,100658.13
2019-02-19T07:34:50.270Z,100655.47
2019-02-19T07:37:20.977Z,100651.48
2019-02-19T07:39:51.453Z,100650.91
2019-02-19T07:42:21.874Z,100649.77
2019-02-19T07:44:52.314Z,100649.14
2019-02-19T07:47:24.817Z,100652.65
2019-02-19T07:49:55.458Z,100656.06
2019-02-19T07:52:27.372Z,100659.10
2019-02-19T07:54:57.943Z,100657.20
2019-02-19T07:57:28.440Z,100655.09
2019-02-19T07:59:59.098Z,100655.09
2019-02-19T08:02:29.834Z,100654.17
2019-02-19T08:05:01.040Z,100657.68
2019-02-19T08:07:31.385Z,100652.08
2019-02-19T08:10:01.850Z,100663.05
2019-02-19T08:12:32.478Z,100657.20
2019-02-19T08:15:03.857Z,100661.34
2019-02-19T08:17:34.238Z,100670.11
2019-02-19T08:20:04.793Z,100676.53
2019-02-19T08:22:35.644Z,100675.20
2019-02-19T08:25:06.534Z,100677.48
2019-02-19T08:27:36.910Z,100672.54
2019-02-19T08:30:07.599Z,100668.08
2019-02-19T08:32:37.997Z,100675.01
2019-02-19T08:35:08.506Z,100673.52
2019-02-19T08:37:39.212Z,100660.91
2019-02-19T08:40:09.737Z,100672.98
2019-02-19T08:42:40.085Z,100672.89
2019-02-19T08:45:10.962Z,100660.37
2019-02-19T08:47:42.931Z,100668.91
2019-02-19T08:50:13.723Z,100666.53
2019-02-19T08:52:45.081Z,100661.72
2019-02-19T08:55:15.454Z,100665.52
2019-02-19T08:57:46.113Z,100661.24
2019-02-19T09:00:17.604Z,100659.75
2019-02-19T09:02:50.024Z,100673.91
2019-02-19T09:05:20.276Z,100667.00
2019-02-19T09:07:51.083Z,100667.00
2019-02-19T09:10:22.710Z,100670.80
2019-02-19T09:12:52.996Z,100651.90
2019-02-19T09:15:23.565Z,100653.11
2019-02-19T09:17:53.875Z,100654.06
2019-02-19T09:20:24.224Z,100662.62
2019-02-19T09:22:54.590Z,100658.91
2019-02-19T09:25:24.886Z,100662.22
2019-02-19T09:27:55.277Z,100663.38
2019-02-19T09:30:25.797Z,100670.77
2019-02-19T09:32:56.928Z,100669.45
2019-02-19T09:35:27.614Z,100664.70
2019-02-19T09:37:58.029Z,100667.55
2019-02-19T09:40:28.962Z,100670.97
2019-02-19T09:42:59.379Z,100660.52
2019-02-19T09:45:30.156Z,100669.19
2019-02-19T09:48:01.486Z,100671.65
2019-02-19T09:50:32.328Z,100666.53
2019-02-19T09:53:04.163Z,100664.72
2019-02-19T09:55:34.728Z,100669.95
2019-02-19T09:58:05.322Z,100663.02
2019-02-19T10:00:36.548Z,100670.23
2019-02-19T10:03:06.872Z,100669.64
2019-02-19T10:05:37.428Z,100675.36
2019-02-19T10:08:08.023Z,100674.77
2019-02-19T10:10:39.628Z,100689.77
2019-02-19T10:13:10.011Z,100678.19
2019-02-19T10:15:40.361Z,100672.75
2019-02-19T10:18:10.718Z,100678.84
2019-02-19T10:20:41.029Z,100677.09
2019-02-19T10:37:07.310Z,100673.33
2019-02-19T10:39:37.611Z,100680.16
2019-02-19T10:42:08.143Z,100683.77
2019-02-19T10:44:38.364Z,100678.23
2019-02-19T10:47:10.362Z,100670.87
2019-02-19T10:50:01.734Z,100682.26
2019-02-19T10:53:24.475Z,100678.55
2019-02-19T10:56:21.608Z,100670.27
2019-02-19T10:59:20.330Z,100682.31
2019-02-19T11:01:50.811Z,100681.08
2019-02-19T11:04:21.351Z,100684.97
2019-02-19T11:06:51.629Z,100682.22
2019-02-19T11:09:22.258Z,100681.50
2019-02-19T11:11:52.611Z,100680.92
2019-02-19T11:14:22.879Z,100680.07
2019-02-19T11:17:20.431Z,100690.00
2019-02-19T11:20:03.705Z,100688.44
2019-02-19T11:22:34.060Z,100676.34
2019-02-19T11:25:11.178Z,100674.16
2019-02-19T11:27:43.660Z,100677.20
2019-02-19T11:30:29.738Z,100672.08
2019-02-19T11:33:09.111Z,100679.53
2019-02-19T11:35:46.774Z,100693.12
2019-02-19T11:38:42.595Z,100681.42
2019-02-19T11:41:30.792Z,100682.08
2019-02-19T11:51:55.680Z,100679.73
2019-02-19T11:54:32.658Z,100678.36
2019-02-19T11:57:17.717Z,100682.63
2019-02-19T12:03:13.272Z,100674.76
2019-02-19T12:05:43.802Z,100673.44
2019-02-19T12:08:14.226Z,100664.76
2019-02-19T12:10:44.653Z,100659.46
2019-02-19T12:13:14.905Z,100654.77
2019-02-19T12:15:45.310Z,100658.47
2019-02-19T12:18:15.754Z,100663.13
2019-02-19T12:20:46.183Z,100656.71
2019-02-19T12:23:16.749Z,100656.75
2019-02-19T12:25:47.286Z,100649.45
2019-02-19T12:28:17.831Z,100655.42
2019-02-19T12:30:48.079Z,100658.08
2019-02-19T12:33:19.200Z,100660.74
2019-02-19T12:35:49.672Z,100663.96
2019-02-19T12:38:19.997Z,100667.37
2019-02-19T12:40:50.478Z,100661.30
2019-02-19T12:43:20.971Z,100653.34
2019-02-19T12:45:51.478Z,100655.61
2019-02-19T12:48:21.909Z,100654.09
2019-02-19T12:50:52.394Z,100658.27
2019-02-19T12:53:22.806Z,100663.02
2019-02-19T12:55:53.760Z,100660.39
2019-02-19T12:58:24.113Z,100656.12
2019-02-19T13:00:54.552Z,100662.14
2019-02-19T13:03:25.122Z,100656.25
2019-02-19T13:05:55.426Z,100655.14
2019-02-19T13:08:25.875Z,100656.76
2019-02-19T13:10:56.258Z,100659.52
2019-02-19T13:13:26.890Z,100664.06
2019-02-19T13:15:57.386Z,100665.98
2019-02-19T13:18:27.839Z,100664.59
2019-02-19T13:20:58.312Z,100654.84
2019-02-19T13:23:28.634Z,100659.94
2019-02-19T13:25:58.958Z,100662.06
2019-02-19T13:28:29.260Z,100663.57
2019-02-19T13:30:59.515Z,100666.03
2019-02-19T13:33:30.014Z,100667.76
2019-02-19T13:36:00.389Z,100653.17
2019-02-19T13:38:31.743Z,100669.09
2019-02-19T13:41:02.106Z,100673.84
2019-02-19T13:43:32.398Z,100672.33
2019-02-19T13:46:03.097Z,100682.96
2019-02-19T13:48:33.535Z,100666.72
2019-02-19T13:51:04.338Z,100663.59
2019-02-19T13:53:42.259Z,100666.03
2019-02-19T13:56:12.784Z,100674.87
2019-02-19T13:58:43.075Z,100682.78
2019-02-19T14:01:14.219Z,100679.35
2019-02-19T14:03:45.818Z,100689.69
2019-02-19T14:06:16.211Z,100691.37
2019-02-19T14:08:46.871Z,100696.11
2019-02-19T14:11:19.971Z,100703.86
2019-02-19T14:14:08.717Z,100694.75
2019-02-19T14:16:52.268Z,100692.62
2019-02-19T14:19:41.641Z,100682.10
2019-02-19T14:22:33.933Z,100699.19
2019-02-19T14:25:23.554Z,100699.83
2019-02-19T14:28:12.547Z,100702.48
2019-02-19T14:31:00.939Z,100707.64
2019-02-19T14:33:53.323Z,100711.63
2019-02-19T14:36:35.437Z,100711.80
2019-02-19T14:39:37.982Z,100704.77
2019-02-19T14:42:27.535Z,100716.26
2019-02-19T14:45:17.077Z,100704.01
2019-02-19T14:48:24.855Z,100716.24
2019-02-19T14:51:03.296Z,100721.66
2019-02-19T14:53:52.822Z,100709.31
2019-02-19T14:56:40.470Z,100723.38
2019-02-19T14:59:22.908Z,100715.59
2019-02-19T15:02:22.083Z,100718.92
2019-02-19T15:05:29.254Z,100732.41
2019-02-19T15:08:25.195Z,100722.14
2019-02-19T15:11:23.239Z,100729.76
2019-02-19T15:14:07.581Z,100737.55
2019-02-19T15:16:56.976Z,100732.80
2019-02-19T15:19:39.847Z,100744.67
2019-02-19T15:22:17.604Z,100748.36
2019-02-19T15:25:05.330Z,100741.71
2019-02-19T15:27:45.843Z,100723.41
2019-02-19T15:30:42.948Z,100753.03
2019-02-19T15:33:30.717Z,100732.37
2019-02-19T15:36:20.355Z,100745.16
2019-02-19T15:39:15.679Z,100743.22
2019-02-19T15:42:25.160Z,100741.70
2019-02-19T15:45:17.857Z,100747.07
2019-02-19T15:47:58.584Z,100759.88
2019-02-19T15:50:50.200Z,100749.26
2019-02-19T15:53:29.672Z,100765.90
2019-02-19T15:56:18.342Z,100759.36
2019-02-19T15:59:16.859Z,100753.89
2019-02-19T16:02:15.413Z,100754.84
2019-02-19T16:05:03.311Z,100750.62
2019-02-19T16:07:52.690Z,100755.36
2019-02-19T16:10:31.619Z,100759.45
2019-02-19T16:13:13.694Z,100763.97
2019-02-19T16:15:53.149Z,100767.66
2019-02-19T16:18:38.210Z,100770.79
2019-02-19T16:21:27.495Z,100771.36
2019-02-19T16:24:16.928Z,100769.55
2019-02-19T16:27:05.760Z,100778.09
2019-02-19T16:29:57.574Z,100792.80
2019-02-19T16:32:35.382Z,100794.19
2019-02-19T16:35:32.827Z,100790.52
2019-02-19T16:38:19.291Z,100795.36
2019-02-19T16:41:26.802Z,100810.69
2019-02-19T16:44:19.107Z,100810.13
2019-02-19T16:47:13.218Z,100804.90
2019-02-19T16:49:56.022Z,100813.25
2019-02-19T16:52:51.487Z,100813.25
2019-02-19T16:55:41.100Z,100819.04
2019-02-19T16:58:36.268Z,100822.46
2019-02-19T17:01:25.746Z,100811.92
2019-02-19T17:04:19.031Z,100817.89
2019-02-19T17:07:06.827Z,100814.98
2019-02-19T17:09:46.581Z,100829.91
2019-02-19T17:12:27.543Z,100846.70
2019-02-19T17:15:35.219Z,100837.91
2019-02-19T17:18:24.530Z,100845.20
2019-02-19T17:21:14.028Z,100849.92
2019-02-19T17:24:12.368Z,100853.83
2019-02-19T17:27:02.050Z,100851.34
2019-02-19T17:29:40.827Z,100855.88
2019-02-19T17:32:34.288Z,100850.23
2019-02-19T17:35:23.944Z,100856.17
2019-02-19T17:38:15.328Z,100859.45
2019-02-19T17:41:13.157Z,100861.17
2019-02-19T17:43:58.679Z,100872.17
2019-02-19T17:47:00.788Z,100877.78
2019-02-19T17:49:40.963Z,100878.16
2019-02-19T17:52:26.731Z,100871.92
2019-02-19T17:55:12.476Z,100877.56
2019-02-19T17:57:59.705Z,100871.32
2019-02-19T18:00:51.770Z,100882.31
2019-02-19T18:03:41.248Z,100883.01
2019-02-19T18:06:36.634Z,100878.00
2019-02-19T18:09:12.600Z,100881.68
2019-02-19T18:12:01.947Z,100876.08
2019-02-19T18:15:10.429Z,100880.27
2019-02-19T18:18:02.770Z,100874.71
2019-02-19T18:20:33.526Z,100885.19
2019-02-19T18:23:04.155Z,100892.34
2019-02-19T18:25:34.405Z,100890.70
2019-02-19T18:28:04.655Z,100899.91
2019-02-19T18:30:34.918Z,100895.45
2019-02-19T18:33:05.306Z,100899.44
2019-02-19T18:35:35.696Z,100910.83
2019-02-19T18:38:06.025Z,100902.26
2019-02-19T18:40:36.497Z,100908.64
2019-02-19T18:43:06.927Z,100915.83
2019-02-19T18:45:37.582Z,100903.88
2019-02-19T18:48:07.903Z,100897.47
2019-02-19T18:50:38.538Z,100914.04
2019-02-19T18:53:08.815Z,100902.95
2019-02-19T18:55:39.214Z,100902.81
2019-02-19T18:58:09.509Z,100909.98
2019-02-19T19:00:39.892Z,100916.39
2019-02-19T19:03:10.372Z,100910.70
2019-02-19T19:05:40.615Z,100918.87
2019-02-19T19:08:11.057Z,100919.91
2019-02-19T19:10:42.157Z,100922.47
2019-02-19T19:13:12.517Z,100923.72
2019-02-19T19:15:42.821Z,100923.72
2019-02-19T19:18:13.208Z,100923.16
2019-02-19T19:20:43.507Z,100924.02
2019-02-19T19:23:13.825Z,100928.08
2019-02-19T19:25:44.160Z,100935.19
2019-02-19T19:28:14.567Z,100932.45
2019-02-19T19:30:45.204Z,100940.41
2019-02-19T19:33:16.178Z,100936.85
2019-02-19T19:35:46.429Z,100941.61
2019-02-19T19:38:16.708Z,100946.36
2019-02-19T19:40:47.280Z,100944.65
2019-02-19T19:43:18.663Z,100955.82
2019-02-19T19:45:48.994Z,100955.82
2019-02-19T19:48:19.260Z,100952.91
2019-02-19T19:50:49.614Z,100951.67
2019-02-19T19:53:20.893Z,100955.73
2019-02-19T19:55:51.370Z,100969.02
2019-02-19T19:58:21.617Z,100953.47
2019-02-19T20:00:52.239Z,100961.73
2019-02-19T20:03:22.768Z,100969.31
2019-02-19T20:05:53.180Z,100965.02
2019-02-19T20:08:23.443Z,100966.83
2019-02-19T20:10:53.777Z,100966.98
2019-02-19T20:13:24.017Z,100966.98
2019-02-19T20:15:54.611Z,100968.87
2019-02-19T20:18:25.263Z,100963.01
2019-02-19T20:20:55.485Z,100963.39
2019-02-19T20:23:26.014Z,100969.25
2019-02-19T20:25:56.344Z,100967.84
2019-02-19T20:28:27.058Z,100974.17
2019-02-19T20:30:57.489Z,100968.45
2019-02-19T20:33:28.182Z,100974.86
2019-02-19T20:35:58.429Z,100976.50
2019-02-19T20:38:29.454Z,100974.62
2019-02-19T20:40:59.774Z,100975.01
2019-02-19T20:43:30.154Z,100973.16
2019-02-19T20:46:00.522Z,100977.36
2019-02-19T20:48:31.501Z,100976.81
2019-02-19T20:51:01.820Z,100979.46
2019-02-19T20:53:35.901Z,100979.37
2019-02-19T20:56:08.837Z,100985.97
2019-02-19T20:58:42.081Z,100982.75
2019-02-19T21:01:17.533Z,100985.97
2019-02-19T21:04:14.186Z,100986.73
2019-02-19T21:07:23.873Z,100988.62
2019-02-19T21:10:21.776Z,100996.16
2019-02-19T21:12:56.693Z,100987.03
2019-02-19T21:15:26.934Z,100989.14
2019-02-19T21:17:57.318Z,100984.22
2019-02-19T21:20:27.888Z,100982.50
2019-02-19T21:22:58.548Z,100982.03
2019-02-19T21:25:30.947Z,100992.98
2019-02-19T21:28:01.263Z,100990.25
2019-02-19T21:30:31.724Z,100998.69
2019-02-19T21:33:04.075Z,100998.52
2019-02-19T21:35:35.444Z,101002.42
2019-02-19T21:38:06.562Z,101005.55
2019-02-19T21:40:37.018Z,101004.30
2019-02-19T21:43:07.396Z,101006.87
2019-02-19T21:45:37.641Z,101002.50
2019-02-19T21:48:07.942Z,101007.34
2019-02-19T21:50:39.361Z,101004.85
2019-02-19T21:53:09.948Z,101007.89
2019-02-19T21:55:41.039Z,101008.75
2019-02-19T21:58:11.663Z,101011.02
2019-02-19T22:00:42.019Z,101005.16
2019-02-19T22:03:12.466Z,101008.45
2019-02-19T22:05:43.079Z,101006.73
2019-02-19T22:08:13.397Z,101017.19
2019-02-19T22:10:43.741Z,101014.36
2019-02-19T22:13:14.354Z,101016.72
2019-02-19T22:15:44.591Z,101018.98
2019-02-19T22:18:14.998Z,101020.70
2019-02-19T22:21:04.579Z,101011.19
2019-02-19T22:23:34.871Z,101015.30
2019-02-19T22:26:05.374Z,101000.70
2019-02-19T22:28:35.792Z,101009.98
2019-02-19T22:31:06.071Z,101013.03
2019-02-19T22:33:36.929Z,101006.31
2019-02-19T22:36:14.310Z,101011.02
2019-02-19T22:38:44.960Z,101018.05
2019-02-19T22:41:15.393Z,101011.41
2019-02-19T22:43:45.736Z,101017.71
2019-02-19T22:46:16.051Z,101021.56
2019-02-19T22:48:46.474Z,101022.80
2019-02-19T22:51:16.829Z,101026.70
2019-02-19T22:53:56.033Z,101031.08
2019-02-19T22:56:38.559Z,101028.03
2019-02-19T22:59:09.252Z,101035.44
2019-02-19T23:01:45.720Z,101023.87
2019-02-19T23:04:16.026Z,101016.47
2019-02-19T23:06:46.433Z,101032.09
2019-02-19T23:09:16.776Z,101034.92
2019-02-19T23:11:47.078Z,101031.16
2019-02-19T23:14:17.504Z,101041.22
2019-02-19T23:16:47.853Z,101040.70
2019-02-19T23:19:18.131Z,101045.07
2019-02-19T23:21:48.404Z,101041.61
2019-02-19T23:24:19.055Z,101040.75
2019-02-19T23:26:49.386Z,101033.13
2019-02-19T23:29:20.024Z,101028.20
2019-02-19T23:31:50.245Z,101025.55
2019-02-19T23:34:20.487Z,101026.09
2019-02-19T23:37:00.564Z,101030.30
2019-02-19T23:39:30.930Z,101021.56
2019-02-19T23:42:01.326Z,101034.75
2019-02-19T23:44:31.571Z,101028.42
2019-02-19T23:47:01.879Z,101036.77
2019-02-19T23:49:32.171Z,101035.53
2019-02-19T23:52:02.746Z,101037.71
2019-02-19T23:54:34.430Z,101041.95
2019-02-19T23:57:05.115Z,101042.16
2019-02-19T23:59:35.742Z,101045.75
